createdAt,value
2018-02-24T00:02:28.524Z,13.90
2018-02-24T00:04:56.272Z,13.07
2018-02-24T00:07:23.937Z,14.17
2018-02-24T00:09:51.812Z,13.57
2018-02-24T00:12:19.472Z,15.20
2018-02-24T00:14:47.320Z,14.53
2018-02-24T00:17:15.416Z,13.13
2018-02-24T00:19:42.981Z,14.10
2018-02-24T00:22:11.227Z,16.30
2018-02-24T00:24:38.861Z,14.73
2018-02-24T00:27:07.109Z,13.60
2018-02-24T00:29:34.781Z,12.73
2018-02-24T00:32:02.462Z,15.10
2018-02-24T00:34:30.806Z,14.53
2018-02-24T00:36:59.432Z,12.10
2018-02-24T00:39:27.821Z,12.60
2018-02-24T00:41:56.197Z,14.50
2018-02-24T00:44:24.436Z,12.20
2018-02-24T00:46:51.933Z,12.30
2018-02-24T00:49:20.175Z,12.50
2018-02-24T00:51:47.649Z,13.30
2018-02-24T00:54:15.142Z,11.57
2018-02-24T00:56:42.615Z,10.57
2018-02-24T00:59:10.138Z,14.07
2018-02-24T01:01:38.392Z,12.17
2018-02-24T01:04:05.870Z,11.47
2018-02-24T01:06:34.110Z,11.43
2018-02-24T01:09:01.602Z,10.57
2018-02-24T01:11:29.835Z,11.00
2018-02-24T01:13:57.306Z,10.80
2018-02-24T01:16:24.846Z,11.40
2018-02-24T01:18:52.319Z,13.17
2018-02-24T01:21:19.792Z,14.80
2018-02-24T01:23:47.281Z,14.50
2018-02-24T01:26:15.528Z,15.03
2018-02-24T01:28:42.996Z,13.93
2018-02-24T01:31:10.489Z,14.30
2018-02-24T01:33:37.963Z,14.43
2018-02-24T01:36:05.441Z,13.70
2018-02-24T01:38:32.934Z,14.00
2018-02-24T01:41:00.404Z,13.57
2018-02-24T01:43:28.689Z,15.67
2018-02-24T01:45:56.155Z,15.57
2018-02-24T01:48:24.392Z,14.07
2018-02-24T01:50:51.945Z,16.40
2018-02-24T01:53:19.440Z,16.90
2018-02-24T01:55:47.688Z,17.40
2018-02-24T01:58:15.168Z,18.25
2018-02-24T02:00:43.431Z,20.77
2018-02-24T02:03:10.913Z,17.37
2018-02-24T02:05:39.173Z,17.90
2018-02-24T02:08:06.640Z,19.57
2018-02-24T02:10:34.885Z,13.70
2018-02-24T02:13:03.152Z,17.90
2018-02-24T02:15:30.633Z,17.33
2018-02-24T02:17:58.107Z,16.90
2018-02-24T02:20:25.605Z,18.53
2018-02-24T02:22:53.076Z,15.33
2018-02-24T02:25:20.548Z,18.02
2018-02-24T02:27:48.053Z,19.67
2018-02-24T02:30:16.298Z,20.27
2018-02-24T02:32:43.785Z,22.50
2018-02-24T02:35:12.063Z,21.00
2018-02-24T02:37:40.312Z,20.17
2018-02-24T02:40:07.789Z,19.27
2018-02-24T02:42:35.304Z,19.73
2018-02-24T02:45:02.781Z,16.43
2018-02-24T02:47:30.259Z,20.23
2018-02-24T02:49:57.773Z,18.98
2018-02-24T02:52:25.253Z,21.15
2018-02-24T02:54:52.729Z,20.60
2018-02-24T02:57:20.223Z,19.87
2018-02-24T02:59:48.491Z,20.77
2018-02-24T03:02:15.958Z,21.07
2018-02-24T03:04:44.219Z,21.10
2018-02-24T03:07:11.690Z,18.63
2018-02-24T03:09:39.947Z,22.42
2018-02-24T03:12:07.444Z,23.10
2018-02-24T03:14:34.916Z,22.55
2018-02-24T03:17:02.404Z,23.27
2018-02-24T03:19:29.890Z,23.77
2018-02-24T03:21:58.151Z,24.73
2018-02-24T03:24:25.648Z,22.40
2018-02-24T03:26:53.126Z,24.05
2018-02-24T03:29:21.368Z,25.30
2018-02-24T03:31:49.633Z,23.05
2018-02-24T03:34:17.108Z,27.50
2018-02-24T03:36:45.352Z,21.85
2018-02-24T03:39:12.848Z,24.27
2018-02-24T03:41:41.101Z,23.77
2018-02-24T03:44:08.572Z,24.90
2018-02-24T03:46:36.829Z,24.70
2018-02-24T03:49:04.305Z,24.33
2018-02-24T03:51:32.580Z,27.83
2018-02-24T03:54:00.828Z,23.27
2018-02-24T03:56:28.312Z,24.10
2018-02-24T03:58:55.795Z,23.00
2018-02-24T04:01:24.054Z,20.53
2018-02-24T04:03:52.308Z,23.97
2018-02-24T04:06:19.784Z,26.30
2018-02-24T04:08:47.266Z,22.07
2018-02-24T04:11:15.516Z,22.50
2018-02-24T04:13:42.989Z,23.77
2018-02-24T04:16:11.248Z,22.07
2018-02-24T04:18:38.724Z,24.80
2018-02-24T04:21:06.964Z,28.80
2018-02-24T04:23:34.457Z,25.40
2018-02-24T04:26:02.697Z,30.20
2018-02-24T04:28:30.171Z,29.87
2018-02-24T04:30:57.648Z,29.00
2018-02-24T04:33:25.893Z,35.23
2018-02-24T04:35:53.388Z,28.80
2018-02-24T04:38:21.625Z,26.10
2018-02-24T04:40:49.102Z,31.60
2018-02-24T04:43:16.592Z,32.37
2018-02-24T04:45:44.832Z,27.53
2018-02-24T04:48:12.325Z,28.83
2018-02-24T04:50:40.565Z,28.93
2018-02-24T04:53:08.041Z,30.67
2018-02-24T04:55:35.532Z,29.30
2018-02-24T04:58:03.009Z,27.03
2018-02-24T05:00:30.481Z,31.40
2018-02-24T05:02:57.972Z,25.93
2018-02-24T05:05:25.440Z,27.83
2018-02-24T05:07:52.910Z,33.50
2018-02-24T05:10:21.167Z,29.43
2018-02-24T05:12:48.640Z,25.90
2018-02-24T05:15:16.877Z,26.20
2018-02-24T05:17:44.374Z,31.40
2018-02-24T05:20:12.621Z,27.13
2018-02-24T05:22:40.096Z,28.20
2018-02-24T05:25:07.593Z,33.27
2018-02-24T05:27:35.061Z,29.93
2018-02-24T05:30:02.541Z,27.97
2018-02-24T05:32:30.045Z,27.27
2018-02-24T05:34:58.281Z,31.20
2018-02-24T05:37:25.754Z,29.67
2018-02-24T05:39:53.240Z,31.30
2018-02-24T05:42:21.480Z,30.20
2018-02-24T05:44:49.718Z,39.93
2018-02-24T05:47:17.200Z,31.80
2018-02-24T05:49:44.681Z,34.03
2018-02-24T05:52:12.171Z,29.00
2018-02-24T05:54:40.444Z,32.17
2018-02-24T05:57:08.717Z,30.20
2018-02-24T05:59:36.980Z,34.77
2018-02-24T06:02:05.970Z,32.63
2018-02-24T06:04:33.441Z,28.87
2018-02-24T06:07:00.943Z,33.23
2018-02-24T06:09:28.466Z,29.13
2018-02-24T06:11:56.028Z,29.10
2018-02-24T06:14:24.293Z,30.97
2018-02-24T06:16:54.868Z,32.50
2018-02-24T06:19:30.836Z,35.17
2018-02-24T06:21:59.636Z,29.07
2018-02-24T06:24:27.411Z,27.83
2018-02-24T06:26:55.319Z,36.20
2018-02-24T06:29:23.560Z,27.03
2018-02-24T06:31:51.029Z,29.87
2018-02-24T06:34:25.941Z,33.23
2018-02-24T06:36:53.798Z,34.27
2018-02-24T06:39:22.174Z,30.53
2018-02-24T06:41:49.724Z,31.53
2018-02-24T06:44:17.200Z,32.50
2018-02-24T06:46:44.816Z,32.57
2018-02-24T06:49:13.451Z,30.60
2018-02-24T06:51:40.921Z,36.03
2018-02-24T06:54:08.593Z,34.43
2018-02-24T06:56:36.084Z,33.93
2018-02-24T06:59:04.330Z,32.90
2018-02-24T07:01:31.909Z,32.43
2018-02-24T07:03:59.720Z,34.83
2018-02-24T07:06:27.398Z,28.43
2018-02-24T07:08:55.212Z,31.23
2018-02-24T07:11:23.273Z,35.43
2018-02-24T07:13:50.823Z,40.03
2018-02-24T07:16:18.296Z,32.60
2018-02-24T07:18:45.781Z,32.63
2018-02-24T07:21:14.017Z,28.67
2018-02-24T07:23:41.514Z,37.57
2018-02-24T07:26:09.753Z,36.80
2018-02-24T07:28:37.221Z,31.60
2018-02-24T07:31:04.717Z,35.87
2018-02-24T07:33:33.040Z,31.37
2018-02-24T07:36:00.519Z,32.20
2018-02-24T07:38:28.021Z,28.20
2018-02-24T07:40:55.550Z,32.97
2018-02-24T07:43:23.792Z,39.47
2018-02-24T07:45:51.280Z,27.80
2018-02-24T07:48:18.755Z,34.10
2018-02-24T07:50:46.996Z,32.57
2018-02-24T07:53:14.489Z,31.27
2018-02-24T07:55:42.726Z,27.23
2018-02-24T07:58:10.197Z,27.73
2018-02-24T08:00:37.688Z,30.00
2018-02-24T08:03:05.926Z,30.60
2018-02-24T08:05:33.398Z,28.67
2018-02-24T08:08:00.884Z,34.13
2018-02-24T08:10:29.138Z,33.90
2018-02-24T08:12:56.629Z,32.57
2018-02-24T08:15:24.161Z,31.13
2018-02-24T08:17:52.400Z,31.70
2018-02-24T08:20:19.892Z,32.10
2018-02-24T08:22:47.363Z,33.73
2018-02-24T08:25:15.603Z,33.93
2018-02-24T08:27:43.100Z,27.87
2018-02-24T08:30:11.348Z,30.00
2018-02-24T08:32:38.870Z,30.37
2018-02-24T08:35:06.348Z,32.40
2018-02-24T08:37:33.825Z,30.80
2018-02-24T08:40:01.408Z,33.40
2018-02-24T08:42:29.649Z,28.30
2018-02-24T08:44:57.127Z,32.13
2018-02-24T08:47:24.621Z,38.83
2018-02-24T08:49:52.863Z,29.03
2018-02-24T08:52:21.108Z,28.90
2018-02-24T08:54:48.617Z,33.37
2018-02-24T08:57:16.889Z,31.47
2018-02-24T08:59:45.129Z,31.57
2018-02-24T09:02:12.609Z,26.20
2018-02-24T09:04:40.080Z,32.87
2018-02-24T09:07:07.560Z,34.20
2018-02-24T09:09:35.820Z,26.30
2018-02-24T09:12:03.380Z,32.17
2018-02-24T09:14:30.881Z,36.50
2018-02-24T09:16:58.356Z,27.60
2018-02-24T09:19:25.828Z,24.47
2018-02-24T09:21:53.328Z,25.63
2018-02-24T09:24:21.564Z,38.60
2018-02-24T09:26:49.032Z,25.27
2018-02-24T09:29:18.033Z,26.30
2018-02-24T09:31:45.511Z,27.57
2018-02-24T09:34:13.750Z,28.67
2018-02-24T09:36:41.245Z,24.60
2018-02-24T09:39:09.511Z,28.13
2018-02-24T09:41:37.736Z,24.80
2018-02-24T09:44:05.240Z,27.40
2018-02-24T09:46:33.476Z,25.47
2018-02-24T09:49:00.993Z,21.77
2018-02-24T09:51:29.253Z,23.57
2018-02-24T09:53:58.260Z,32.53
2018-02-24T09:56:25.728Z,29.30
2018-02-24T09:58:53.990Z,29.60
2018-02-24T10:01:21.464Z,33.60
2018-02-24T10:03:49.725Z,26.73
2018-02-24T10:06:17.196Z,27.70
2018-02-24T10:08:45.437Z,30.27
2018-02-24T10:11:12.956Z,26.43
2018-02-24T10:13:40.428Z,33.07
2018-02-24T10:16:07.916Z,26.73
2018-02-24T10:18:35.384Z,27.70
2018-02-24T10:21:03.624Z,37.13
2018-02-24T10:23:31.110Z,30.03
2018-02-24T10:25:58.579Z,28.00
2018-02-24T10:28:26.095Z,24.63
2018-02-24T10:30:53.572Z,31.57
2018-02-24T10:33:21.049Z,28.10
2018-02-24T10:35:48.636Z,27.07
2018-02-24T10:38:16.912Z,31.37
2018-02-24T10:40:45.172Z,29.73
2018-02-24T10:43:12.660Z,28.90
2018-02-24T10:45:40.905Z,30.83
2018-02-24T10:48:08.396Z,28.40
2018-02-24T10:50:36.672Z,28.80
2018-02-24T10:53:04.924Z,34.63
2018-02-24T10:55:32.449Z,27.67
2018-02-24T10:57:59.918Z,27.77
2018-02-24T11:00:27.530Z,28.83
2018-02-24T11:02:55.768Z,34.80
2018-02-24T11:05:23.236Z,31.00
2018-02-24T11:07:50.729Z,24.10
2018-02-24T11:10:18.964Z,29.70
2018-02-24T11:12:46.441Z,24.20
2018-02-24T11:15:14.009Z,28.17
2018-02-24T11:17:42.271Z,32.60
2018-02-24T11:20:09.778Z,24.83
2018-02-24T11:22:37.252Z,29.87
2018-02-24T11:25:04.741Z,26.93
2018-02-24T11:27:32.213Z,24.77
2018-02-24T11:29:59.684Z,27.23
2018-02-24T11:32:27.932Z,28.33
2018-02-24T11:34:55.400Z,31.17
2018-02-24T11:37:22.894Z,28.77
2018-02-24T11:39:51.129Z,27.70
2018-02-24T11:42:18.608Z,29.13
2018-02-24T11:44:46.897Z,24.37
2018-02-24T11:47:15.142Z,32.50
2018-02-24T11:49:42.728Z,32.03
2018-02-24T11:52:11.004Z,27.83
2018-02-24T11:54:38.560Z,28.63
2018-02-24T11:57:06.813Z,28.93
2018-02-24T11:59:34.294Z,26.30
2018-02-24T12:02:01.785Z,33.10
2018-02-24T12:04:29.280Z,29.00
2018-02-24T12:06:56.752Z,27.60
2018-02-24T12:09:24.292Z,32.80
2018-02-24T12:11:51.772Z,31.80
2018-02-24T12:14:19.249Z,31.53
2018-02-24T12:16:46.749Z,35.40
2018-02-24T12:19:14.270Z,31.50
2018-02-24T12:21:42.517Z,31.97
2018-02-24T12:24:10.122Z,32.60
2018-02-24T12:26:38.372Z,30.40
2018-02-24T12:29:05.842Z,26.77
2018-02-24T12:31:34.154Z,33.30
2018-02-24T12:34:02.395Z,27.20
2018-02-24T12:36:30.644Z,29.83
2018-02-24T12:38:58.117Z,38.90
2018-02-24T12:41:25.600Z,44.90
2018-02-24T12:43:53.840Z,42.77
2018-02-24T12:46:21.337Z,45.33
2018-02-24T12:48:49.590Z,38.23
2018-02-24T12:51:17.068Z,46.93
2018-02-24T12:53:45.323Z,40.37
2018-02-24T12:56:12.804Z,45.77
2018-02-24T12:58:41.041Z,72.07
2018-02-24T13:01:10.477Z,38.83
2018-02-24T13:03:38.753Z,37.33
2018-02-24T13:06:06.258Z,44.60
2018-02-24T13:08:33.748Z,46.90
2018-02-24T13:11:01.231Z,41.93
2018-02-24T13:13:28.731Z,45.80
2018-02-24T13:15:56.210Z,41.17
2018-02-24T13:18:23.696Z,43.83
2018-02-24T13:20:51.198Z,40.57
2018-02-24T13:23:18.674Z,36.57
2018-02-24T13:25:46.143Z,36.33
2018-02-24T13:28:13.628Z,43.33
2018-02-24T13:30:41.152Z,43.63
2018-02-24T13:33:08.713Z,40.80
2018-02-24T13:35:36.249Z,43.40
2018-02-24T13:38:03.741Z,40.63
2018-02-24T13:40:31.365Z,34.07
2018-02-24T13:42:59.618Z,37.93
2018-02-24T13:45:27.101Z,44.13
2018-02-24T13:47:55.381Z,38.67
2018-02-24T13:50:23.638Z,33.27
2018-02-24T13:52:51.897Z,38.70
2018-02-24T13:55:19.394Z,35.63
2018-02-24T13:57:47.653Z,52.63
2018-02-24T14:00:15.973Z,49.10
2018-02-24T14:02:43.461Z,43.83
2018-02-24T14:05:11.720Z,67.23
2018-02-24T14:07:39.222Z,46.77
2018-02-24T14:10:06.701Z,32.07
2018-02-24T14:12:34.202Z,38.87
2018-02-24T14:15:01.742Z,48.23
2018-02-24T14:17:29.226Z,35.43
2018-02-24T14:19:56.746Z,37.70
2018-02-24T14:22:24.249Z,39.17
2018-02-24T14:24:51.729Z,40.40
2018-02-24T14:27:19.245Z,40.77
2018-02-24T14:29:46.784Z,33.83
2018-02-24T14:32:14.324Z,37.50
2018-02-24T14:34:42.604Z,44.17
2018-02-24T14:37:10.860Z,32.33
2018-02-24T14:39:39.113Z,36.50
2018-02-24T14:42:06.762Z,39.50
2018-02-24T14:44:34.275Z,39.67
2018-02-24T14:47:02.535Z,37.90
2018-02-24T14:49:30.030Z,33.40
2018-02-24T14:51:58.298Z,38.70
2018-02-24T14:54:26.636Z,37.77
2018-02-24T14:56:54.144Z,29.87
2018-02-24T14:59:21.631Z,36.10
2018-02-24T15:01:49.131Z,33.80
2018-02-24T15:04:18.127Z,32.73
2018-02-24T15:06:47.203Z,37.63
2018-02-24T15:09:14.709Z,33.80
2018-02-24T15:11:43.112Z,42.73
2018-02-24T15:14:10.588Z,41.47
2018-02-24T15:16:38.112Z,47.57
2018-02-24T15:19:05.666Z,38.23
2018-02-24T15:21:34.072Z,41.90
2018-02-24T15:24:01.585Z,41.23
2018-02-24T15:26:29.065Z,40.73
2018-02-24T15:28:57.346Z,47.27
2018-02-24T15:31:24.904Z,33.80
2018-02-24T15:33:53.149Z,38.17
2018-02-24T15:36:20.645Z,47.60
2018-02-24T15:38:48.932Z,43.63
2018-02-24T15:41:16.449Z,45.67
2018-02-24T15:43:44.063Z,33.90
2018-02-24T15:46:11.534Z,43.13
2018-02-24T15:48:39.040Z,34.73
2018-02-24T15:51:07.372Z,41.27
2018-02-24T15:53:34.856Z,36.63
2018-02-24T15:56:02.357Z,37.60
2018-02-24T15:58:30.711Z,35.77
2018-02-24T16:00:58.964Z,34.40
2018-02-24T16:03:26.553Z,44.37
2018-02-24T16:05:54.808Z,54.43
2018-02-24T16:08:22.325Z,37.00
2018-02-24T16:10:49.806Z,43.70
2018-02-24T16:13:17.283Z,43.93
2018-02-24T16:15:44.868Z,45.57
2018-02-24T16:18:13.119Z,49.03
2018-02-24T16:20:40.748Z,41.67
2018-02-24T16:23:08.240Z,40.97
2018-02-24T16:25:35.716Z,35.63
2018-02-24T16:28:03.201Z,33.50
2018-02-24T16:30:31.449Z,42.20
2018-02-24T16:33:00.424Z,35.80
2018-02-24T16:35:27.908Z,37.90
2018-02-24T16:37:55.447Z,43.57
2018-02-24T16:40:22.936Z,44.40
2018-02-24T16:42:51.205Z,36.80
2018-02-24T16:45:19.489Z,47.43
2018-02-24T16:47:47.743Z,46.00
2018-02-24T16:50:15.241Z,43.00
2018-02-24T16:52:43.482Z,49.70
2018-02-24T16:55:10.953Z,42.80
2018-02-24T16:57:39.230Z,43.73
2018-02-24T17:00:06.705Z,41.43
2018-02-24T17:02:37.163Z,40.30
2018-02-24T17:05:07.097Z,38.37
2018-02-24T17:07:34.579Z,43.10
2018-02-24T17:10:02.563Z,40.90
2018-02-24T17:12:32.061Z,45.30
2018-02-24T17:15:02.442Z,38.60
2018-02-24T17:17:29.983Z,47.97
2018-02-24T17:20:01.580Z,40.03
2018-02-24T17:22:33.969Z,46.70
2018-02-24T17:25:11.431Z,45.73
2018-02-24T17:27:44.996Z,43.10
2018-02-24T17:30:15.431Z,40.90
2018-02-24T17:32:43.296Z,44.07
2018-02-24T17:35:15.531Z,45.97
2018-02-24T17:37:46.199Z,38.13
2018-02-24T17:40:15.204Z,44.83
2018-02-24T17:42:42.764Z,51.57
2018-02-24T17:45:10.547Z,43.10
2018-02-24T17:47:41.081Z,41.20
2018-02-24T17:50:09.911Z,38.87
2018-02-24T17:52:37.684Z,52.97
2018-02-24T17:55:09.708Z,54.67
2018-02-24T17:57:39.733Z,51.17
2018-02-24T18:00:10.305Z,51.37
2018-02-24T18:02:44.389Z,47.63
2018-02-24T18:05:13.212Z,41.50
2018-02-24T18:07:43.844Z,49.80
2018-02-24T18:10:13.443Z,47.53
2018-02-24T18:12:44.986Z,55.43
2018-02-24T18:15:12.456Z,50.20
2018-02-24T18:17:42.011Z,41.90
2018-02-24T18:20:12.100Z,45.20
2018-02-24T18:22:42.297Z,51.50
2018-02-24T18:25:13.549Z,45.97
2018-02-24T18:27:43.494Z,48.80
2018-02-24T18:30:11.728Z,54.53
2018-02-24T18:32:39.197Z,40.63
2018-02-24T18:35:06.688Z,45.30
2018-02-24T18:37:34.929Z,39.87
2018-02-24T18:40:02.401Z,51.50
2018-02-24T18:42:29.917Z,60.03
2018-02-24T18:44:57.429Z,51.07
2018-02-24T18:47:25.676Z,41.40
2018-02-24T18:49:53.170Z,40.73
2018-02-24T18:52:21.409Z,45.27
2018-02-24T18:54:48.897Z,43.83
2018-02-24T18:57:17.156Z,49.00
2018-02-24T18:59:44.628Z,52.13
2018-02-24T19:02:12.097Z,48.00
2018-02-24T19:04:40.340Z,48.03
2018-02-24T19:07:07.821Z,46.10
2018-02-24T19:09:35.311Z,43.07
2018-02-24T19:12:02.784Z,44.10
2018-02-24T19:14:30.263Z,45.80
2018-02-24T19:16:57.754Z,48.93
2018-02-24T19:19:26.037Z,47.57
2018-02-24T19:21:54.305Z,43.97
2018-02-24T19:24:21.781Z,53.43
2018-02-24T19:26:50.049Z,57.27
2018-02-24T19:29:17.537Z,50.20
2018-02-24T19:31:45.068Z,53.83
2018-02-24T19:34:12.676Z,47.53
2018-02-24T19:36:40.153Z,52.83
2018-02-24T19:39:07.628Z,43.57
2018-02-24T19:41:35.127Z,63.90
2018-02-24T19:44:03.366Z,47.53
2018-02-24T19:46:30.845Z,52.03
2018-02-24T19:48:58.342Z,43.07
2018-02-24T19:51:25.814Z,45.00
2018-02-24T19:53:53.312Z,39.93
2018-02-24T19:56:20.786Z,46.57
2018-02-24T19:58:49.021Z,42.83
2018-02-24T20:01:17.649Z,44.67
2018-02-24T20:03:45.886Z,42.50
2018-02-24T20:06:13.379Z,85.90
2018-02-24T20:08:41.620Z,66.33
2018-02-24T20:11:09.101Z,48.93
2018-02-24T20:13:38.120Z,49.07
2018-02-24T20:16:06.356Z,51.87
2018-02-24T20:18:33.840Z,49.20
2018-02-24T20:21:02.841Z,49.97
2018-02-24T20:23:31.090Z,55.63
2018-02-24T20:25:58.561Z,50.47
2018-02-24T20:28:26.045Z,53.67
2018-02-24T20:30:54.276Z,51.20
2018-02-24T20:33:21.769Z,51.40
2018-02-24T20:35:50.055Z,59.93
2018-02-24T20:38:18.292Z,53.80
2018-02-24T20:40:45.780Z,66.40
2018-02-24T20:43:14.028Z,55.03
2018-02-24T20:45:41.638Z,64.67
2018-02-24T20:48:09.952Z,62.83
2018-02-24T20:50:37.420Z,53.80
2018-02-24T20:53:04.909Z,54.87
2018-02-24T20:55:32.407Z,79.10
2018-02-24T20:57:59.877Z,58.17
2018-02-24T21:00:27.355Z,52.67
2018-02-24T21:02:54.870Z,51.33
2018-02-24T21:05:23.205Z,53.23
2018-02-24T21:07:50.704Z,64.70
2018-02-24T21:10:18.964Z,62.07
2018-02-24T21:12:47.625Z,58.47
2018-02-24T21:15:15.219Z,48.70
2018-02-24T21:17:43.484Z,48.73
2018-02-24T21:20:11.051Z,53.70
2018-02-24T21:22:39.329Z,64.20
2018-02-24T21:25:07.612Z,53.40
2018-02-24T21:27:35.856Z,54.60
2018-02-24T21:30:03.339Z,50.30
2018-02-24T21:32:30.904Z,52.13
2018-02-24T21:34:59.162Z,53.40
2018-02-24T21:37:26.638Z,51.13
2018-02-24T21:39:54.928Z,66.70
2018-02-24T21:42:23.190Z,60.47
2018-02-24T21:44:51.449Z,49.97
2018-02-24T21:47:18.917Z,55.60
2018-02-24T21:49:46.492Z,43.37
2018-02-24T21:52:14.806Z,50.47
2018-02-24T21:54:43.184Z,50.30
2018-02-24T21:57:10.693Z,52.50
2018-02-24T21:59:42.488Z,45.03
2018-02-24T22:02:11.477Z,48.37
2018-02-24T22:04:39.921Z,48.03
2018-02-24T22:07:07.606Z,48.33
2018-02-24T22:09:36.332Z,50.00
2018-02-24T22:12:04.155Z,56.47
2018-02-24T22:14:32.392Z,56.57
2018-02-24T22:17:00.012Z,47.37
2018-02-24T22:19:28.324Z,60.00
2018-02-24T22:21:55.837Z,61.07
2018-02-24T22:24:24.113Z,57.20
2018-02-24T22:26:52.372Z,61.23
2018-02-24T22:29:19.865Z,83.10
2018-02-24T22:31:48.201Z,73.70
2018-02-24T22:34:15.673Z,49.63
2018-02-24T22:36:43.223Z,61.57
2018-02-24T22:39:10.734Z,52.47
2018-02-24T22:41:39.157Z,56.10
2018-02-24T22:44:06.655Z,52.77
2018-02-24T22:46:34.901Z,54.53
2018-02-24T22:49:03.513Z,56.10
2018-02-24T22:51:31.761Z,62.00
2018-02-24T22:53:59.233Z,55.40
2018-02-24T22:56:26.805Z,55.93
2018-02-24T22:58:55.049Z,67.60
2018-02-24T23:01:22.520Z,69.97
2018-02-24T23:03:50.018Z,68.10
2018-02-24T23:06:17.497Z,60.87
2018-02-24T23:08:45.014Z,53.97
2018-02-24T23:11:12.508Z,62.50
2018-02-24T23:13:39.981Z,57.50
2018-02-24T23:16:07.459Z,62.80
2018-02-24T23:18:34.955Z,61.70
2018-02-24T23:21:03.205Z,73.97
2018-02-24T23:23:30.684Z,57.57
2018-02-24T23:25:58.173Z,52.10
2018-02-24T23:28:25.645Z,58.50
2018-02-24T23:30:54.100Z,55.37
2018-02-24T23:33:22.362Z,60.47
2018-02-24T23:35:50.612Z,63.57
2018-02-24T23:38:18.141Z,60.33
2018-02-24T23:40:46.779Z,71.83
2018-02-24T23:43:14.249Z,62.70
2018-02-24T23:45:42.488Z,67.40
2018-02-24T23:48:09.981Z,70.87
2018-02-24T23:50:38.221Z,65.97
2018-02-24T23:53:05.696Z,72.00
2018-02-24T23:55:33.191Z,78.63
2018-02-24T23:58:01.429Z,65.37
